EZY696U EGGD-EGAC
Flight info
| Callsign | EZY696U |
|---|---|
| Flight time | 0h 55m |
| Altitude | 27000 |
| Route | BCN P69 DIZIM N864 KISWO DCT AVTIC DCT MONTY UN864 BILVO UP6 TUPEM DCT REMSI DCT NINEB M148 MAGEE |
| Aircraft | A320/M-SDE2E3FGHIJ1RWXYZ/LB1 |
Departure
| Time | 2026-04-21 18:55 |
|---|---|
| Airport | Bristol Airport (EGGD) |
Arrival
| Time | 2026-04-21 19:50 |
|---|---|
| Airport | George Best Belfast City Airport (EGAC) |
| Time | Latitude | Longitude | Altitude | Speed | Heading |
|---|---|---|---|---|---|
| 2026-04-21 18:28 | 51.38567 | -2.70914 | 612 ft | 0 kts | 266° |
| 2026-04-21 18:45 | 51.38567 | -2.70910 | 612 ft | 2 kts | 266° |
| 2026-04-21 18:45 | 51.38568 | -2.70876 | 615 ft | 4 kts | 261° |
| 2026-04-21 18:45 | 51.38578 | -2.70844 | 620 ft | 4 kts | 200° |
| 2026-04-21 18:46 | 51.38600 | -2.70841 | 615 ft | 2 kts | 176° |
| 2026-04-21 18:46 | 51.38602 | -2.70841 | 615 ft | 1 kts | 176° |
| 2026-04-21 18:48 | 51.38601 | -2.70841 | 615 ft | 0 kts | 176° |
| 2026-04-21 18:48 | 51.38567 | -2.70837 | 623 ft | 7 kts | 176° |
| 2026-04-21 18:48 | 51.38513 | -2.70832 | 612 ft | 8 kts | 176° |
| 2026-04-21 18:49 | 51.38470 | -2.70858 | 624 ft | 8 kts | 245° |
| 2026-04-21 18:49 | 51.38465 | -2.70949 | 614 ft | 10 kts | 268° |
| 2026-04-21 18:49 | 51.38462 | -2.71026 | 614 ft | 10 kts | 266° |
| 2026-04-21 18:49 | 51.38455 | -2.71234 | 616 ft | 14 kts | 266° |
| 2026-04-21 18:50 | 51.38448 | -2.71392 | 613 ft | 15 kts | 266° |
| 2026-04-21 18:50 | 51.38442 | -2.71565 | 609 ft | 17 kts | 266° |
| 2026-04-21 18:50 | 51.38434 | -2.71761 | 606 ft | 18 kts | 266° |
| 2026-04-21 18:50 | 51.38432 | -2.71948 | 606 ft | 16 kts | 271° |
| 2026-04-21 18:51 | 51.38430 | -2.72119 | 605 ft | 15 kts | 267° |
| 2026-04-21 18:51 | 51.38425 | -2.72259 | 618 ft | 11 kts | 266° |
| 2026-04-21 18:51 | 51.38420 | -2.72359 | 610 ft | 8 kts | 266° |
| 2026-04-21 18:51 | 51.38417 | -2.72438 | 612 ft | 6 kts | 266° |
| 2026-04-21 18:52 | 51.38414 | -2.72506 | 612 ft | 6 kts | 266° |
| 2026-04-21 18:52 | 51.38410 | -2.72615 | 623 ft | 21 kts | 264° |
| 2026-04-21 18:52 | 51.38400 | -2.72856 | 606 ft | 18 kts | 267° |
| 2026-04-21 18:52 | 51.38394 | -2.73052 | 608 ft | 17 kts | 267° |
| 2026-04-21 18:53 | 51.38388 | -2.73178 | 609 ft | 7 kts | 265° |
| 2026-04-21 18:53 | 51.38385 | -2.73225 | 610 ft | 4 kts | 263° |
| 2026-04-21 18:53 | 51.38358 | -2.73309 | 628 ft | 8 kts | 230° |
| 2026-04-21 18:53 | 51.38301 | -2.73345 | 618 ft | 11 kts | 180° |
| 2026-04-21 18:54 | 51.38240 | -2.73327 | 621 ft | 11 kts | 161° |
| 2026-04-21 18:54 | 51.38215 | -2.73261 | 626 ft | 7 kts | 86° |
| 2026-04-21 18:54 | 51.38220 | -2.73140 | 627 ft | 29 kts | 86° |
| 2026-04-21 18:54 | 51.38249 | -2.72410 | 628 ft | 99 kts | 85° |
| 2026-04-21 18:55 | 51.38284 | -2.71530 | 629 ft | 137 kts | 86° |
| 2026-04-21 18:55 | 51.38358 | -2.69411 | 1496 ft | 146 kts | 86° |
| 2026-04-21 18:55 | 51.38424 | -2.67771 | 2191 ft | 153 kts | 86° |
| 2026-04-21 18:55 | 51.38481 | -2.65988 | 2695 ft | 170 kts | 86° |
| 2026-04-21 18:56 | 51.38540 | -2.63952 | 3105 ft | 195 kts | 86° |
| 2026-04-21 18:56 | 51.38608 | -2.61643 | 3634 ft | 219 kts | 86° |
| 2026-04-21 18:56 | 51.38682 | -2.59132 | 4439 ft | 230 kts | 88° |
| 2026-04-21 18:56 | 51.38877 | -2.56662 | 5342 ft | 238 kts | 72° |
| 2026-04-21 18:57 | 51.39954 | -2.54496 | 6255 ft | 257 kts | 37° |
| 2026-04-21 18:57 | 51.41718 | -2.53714 | 7137 ft | 278 kts | 2° |
| 2026-04-21 18:57 | 51.43593 | -2.54677 | 8033 ft | 294 kts | 329° |
| 2026-04-21 18:57 | 51.45063 | -2.56996 | 8996 ft | 300 kts | 308° |
| 2026-04-21 18:58 | 51.46205 | -2.59833 | 9940 ft | 305 kts | 301° |
| 2026-04-21 18:58 | 51.47229 | -2.62875 | 10574 ft | 320 kts | 300° |
| 2026-04-21 18:58 | 51.48312 | -2.66129 | 10940 ft | 340 kts | 301° |
| 2026-04-21 18:58 | 51.49489 | -2.69473 | 11667 ft | 346 kts | 302° |
| 2026-04-21 18:59 | 51.50738 | -2.72789 | 12543 ft | 348 kts | 304° |
| 2026-04-21 18:59 | 51.52029 | -2.76042 | 13456 ft | 348 kts | 305° |
| 2026-04-21 18:59 | 51.53363 | -2.79296 | 14331 ft | 348 kts | 305° |
| 2026-04-21 18:59 | 51.54709 | -2.82530 | 15240 ft | 349 kts | 305° |
| 2026-04-21 19:00 | 51.56059 | -2.85775 | 15996 ft | 350 kts | 305° |
| 2026-04-21 19:00 | 51.57401 | -2.89016 | 16868 ft | 348 kts | 305° |
| 2026-04-21 19:00 | 51.58731 | -2.92248 | 17786 ft | 345 kts | 305° |
| 2026-04-21 19:00 | 51.60048 | -2.95465 | 18606 ft | 344 kts | 305° |
| 2026-04-21 19:01 | 51.61366 | -2.98692 | 19264 ft | 346 kts | 304° |
| 2026-04-21 19:01 | 51.62694 | -3.01945 | 19872 ft | 349 kts | 304° |
| 2026-04-21 19:01 | 51.64026 | -3.05222 | 20483 ft | 351 kts | 304° |
| 2026-04-21 19:01 | 51.65367 | -3.08527 | 21058 ft | 354 kts | 303° |
| 2026-04-21 19:02 | 51.66719 | -3.11867 | 21643 ft | 357 kts | 303° |
| 2026-04-21 19:02 | 51.68076 | -3.15218 | 22250 ft | 358 kts | 303° |
| 2026-04-21 19:02 | 51.69453 | -3.18573 | 22843 ft | 359 kts | 306° |
| 2026-04-21 19:02 | 51.71174 | -3.21498 | 23422 ft | 362 kts | 320° |
| 2026-04-21 19:03 | 51.73330 | -3.23622 | 23987 ft | 367 kts | 334° |
| 2026-04-21 19:03 | 51.75796 | -3.24795 | 24452 ft | 375 kts | 348° |
| 2026-04-21 19:03 | 51.78430 | -3.24868 | 24904 ft | 385 kts | 2° |
| 2026-04-21 19:03 | 51.81091 | -3.24223 | 25338 ft | 388 kts | 4° |
| 2026-04-21 19:04 | 51.83769 | -3.23553 | 25756 ft | 390 kts | 4° |
| 2026-04-21 19:04 | 51.86427 | -3.22890 | 26180 ft | 393 kts | 4° |
| 2026-04-21 19:04 | 51.89141 | -3.22221 | 26597 ft | 396 kts | 4° |
| 2026-04-21 19:04 | 51.91868 | -3.21550 | 26957 ft | 398 kts | 4° |
| 2026-04-21 19:05 | 51.94615 | -3.20875 | 27274 ft | 401 kts | 4° |
| 2026-04-21 19:05 | 51.97361 | -3.20198 | 27332 ft | 392 kts | 4° |
| 2026-04-21 19:05 | 51.99995 | -3.19533 | 27325 ft | 377 kts | 4° |
| 2026-04-21 19:05 | 52.02569 | -3.18882 | 27316 ft | 372 kts | 3° |
| 2026-04-21 19:06 | 52.05120 | -3.18430 | 27311 ft | 366 kts | 357° |
| 2026-04-21 19:06 | 52.07666 | -3.18258 | 27309 ft | 366 kts | 357° |
| 2026-04-21 19:06 | 52.10210 | -3.18069 | 27310 ft | 366 kts | 357° |
| 2026-04-21 19:06 | 52.12755 | -3.17872 | 27310 ft | 366 kts | 357° |
| 2026-04-21 19:07 | 52.15296 | -3.17674 | 27322 ft | 366 kts | 357° |
| 2026-04-21 19:07 | 52.17840 | -3.17478 | 27320 ft | 366 kts | 357° |
| 2026-04-21 19:07 | 52.20379 | -3.17282 | 27320 ft | 366 kts | 357° |
| 2026-04-21 19:07 | 52.22920 | -3.17085 | 27321 ft | 366 kts | 357° |
| 2026-04-21 19:08 | 52.25468 | -3.16887 | 27343 ft | 366 kts | 357° |
| 2026-04-21 19:08 | 52.28010 | -3.16688 | 27345 ft | 365 kts | 357° |
| 2026-04-21 19:08 | 52.30547 | -3.16490 | 27350 ft | 365 kts | 357° |
| 2026-04-21 19:08 | 52.33080 | -3.16297 | 27349 ft | 365 kts | 357° |
| 2026-04-21 19:09 | 52.35611 | -3.16103 | 27353 ft | 364 kts | 357° |
| 2026-04-21 19:09 | 52.38143 | -3.15907 | 27352 ft | 364 kts | 357° |
| 2026-04-21 19:09 | 52.40674 | -3.15707 | 27351 ft | 364 kts | 357° |
| 2026-04-21 19:09 | 52.43201 | -3.15509 | 27348 ft | 364 kts | 357° |
| 2026-04-21 19:10 | 52.45729 | -3.15314 | 27354 ft | 364 kts | 357° |
| 2026-04-21 19:10 | 52.48250 | -3.15120 | 27372 ft | 363 kts | 357° |
| 2026-04-21 19:10 | 52.50784 | -3.14921 | 27371 ft | 363 kts | 357° |
| 2026-04-21 19:10 | 52.53308 | -3.14722 | 27377 ft | 363 kts | 357° |
| 2026-04-21 19:11 | 52.55827 | -3.14527 | 27377 ft | 362 kts | 357° |
| 2026-04-21 19:11 | 52.58343 | -3.14335 | 27374 ft | 362 kts | 357° |
| 2026-04-21 19:11 | 52.60861 | -3.14144 | 27372 ft | 362 kts | 357° |
| 2026-04-21 19:11 | 52.63372 | -3.13950 | 27373 ft | 362 kts | 357° |
| 2026-04-21 19:12 | 52.65074 | -3.13816 | 27371 ft | 361 kts | 357° |
| 2026-04-21 19:12 | 52.68395 | -3.13549 | 27367 ft | 361 kts | 357° |
| 2026-04-21 19:12 | 52.70905 | -3.13359 | 27364 ft | 360 kts | 355° |
| 2026-04-21 19:12 | 52.73374 | -3.13632 | 27383 ft | 354 kts | 346° |
| 2026-04-21 19:13 | 52.75815 | -3.14215 | 27381 ft | 354 kts | 346° |
| 2026-04-21 19:13 | 52.78255 | -3.14794 | 27378 ft | 354 kts | 347° |
| 2026-04-21 19:13 | 52.80693 | -3.15369 | 27376 ft | 354 kts | 346° |
| 2026-04-21 19:13 | 52.83128 | -3.15946 | 27370 ft | 354 kts | 346° |
| 2026-04-21 19:14 | 52.85561 | -3.16524 | 27370 ft | 354 kts | 346° |
| 2026-04-21 19:14 | 52.87997 | -3.17102 | 27373 ft | 354 kts | 347° |
| 2026-04-21 19:14 | 52.90470 | -3.17328 | 27369 ft | 359 kts | 356° |
| 2026-04-21 19:14 | 52.92970 | -3.17129 | 27374 ft | 360 kts | 357° |
| 2026-04-21 19:15 | 52.95474 | -3.16927 | 27371 ft | 360 kts | 357° |
| 2026-04-21 19:15 | 52.97975 | -3.16726 | 27391 ft | 360 kts | 357° |
| 2026-04-21 19:15 | 53.00474 | -3.16530 | 27391 ft | 360 kts | 357° |
| 2026-04-21 19:15 | 53.02947 | -3.16339 | 27390 ft | 359 kts | 357° |
| 2026-04-21 19:16 | 53.04622 | -3.16208 | 27396 ft | 359 kts | 357° |
| 2026-04-21 19:16 | 53.07119 | -3.16010 | 27395 ft | 359 kts | 357° |
| 2026-04-21 19:16 | 53.09610 | -3.15809 | 27393 ft | 358 kts | 357° |
| 2026-04-21 19:16 | 53.12100 | -3.15603 | 27390 ft | 358 kts | 357° |
| 2026-04-21 19:17 | 53.17073 | -3.15194 | 27384 ft | 358 kts | 357° |
| 2026-04-21 19:17 | 53.19556 | -3.14997 | 27382 ft | 358 kts | 357° |
| 2026-04-21 19:17 | 53.22042 | -3.14801 | 27393 ft | 358 kts | 357° |
| 2026-04-21 19:18 | 53.24529 | -3.14607 | 27391 ft | 357 kts | 357° |
| 2026-04-21 19:18 | 53.27009 | -3.14411 | 27390 ft | 357 kts | 357° |
| 2026-04-21 19:18 | 53.29497 | -3.14212 | 27390 ft | 357 kts | 357° |
| 2026-04-21 19:18 | 53.31977 | -3.14015 | 27387 ft | 357 kts | 357° |
| 2026-04-21 19:19 | 53.34461 | -3.13820 | 27383 ft | 357 kts | 357° |
| 2026-04-21 19:19 | 53.36944 | -3.13623 | 27382 ft | 357 kts | 357° |
| 2026-04-21 19:19 | 53.39422 | -3.13503 | 27381 ft | 354 kts | 352° |
| 2026-04-21 19:19 | 53.41865 | -3.13842 | 27380 ft | 352 kts | 349° |
| 2026-04-21 19:20 | 53.44305 | -3.14213 | 27382 ft | 352 kts | 349° |
| 2026-04-21 19:20 | 53.46742 | -3.14578 | 27384 ft | 352 kts | 350° |
| 2026-04-21 19:20 | 53.49151 | -3.14935 | 27384 ft | 352 kts | 350° |
| 2026-04-21 19:20 | 53.51589 | -3.15299 | 27385 ft | 352 kts | 349° |
| 2026-04-21 19:21 | 53.54030 | -3.15668 | 27380 ft | 352 kts | 349° |
| 2026-04-21 19:21 | 53.56468 | -3.16037 | 27392 ft | 352 kts | 349° |
| 2026-04-21 19:21 | 53.58938 | -3.16413 | 27394 ft | 352 kts | 349° |
| 2026-04-21 19:21 | 53.61379 | -3.16784 | 27394 ft | 352 kts | 349° |
| 2026-04-21 19:22 | 53.63817 | -3.17153 | 27396 ft | 352 kts | 349° |
| 2026-04-21 19:22 | 53.66255 | -3.17525 | 27396 ft | 352 kts | 349° |
| 2026-04-21 19:22 | 53.68657 | -3.17940 | 27397 ft | 349 kts | 345° |
| 2026-04-21 19:22 | 53.70967 | -3.19056 | 27406 ft | 343 kts | 333° |
| 2026-04-21 19:23 | 53.73033 | -3.21011 | 27402 ft | 339 kts | 321° |
| 2026-04-21 19:23 | 53.74776 | -3.23669 | 27396 ft | 338 kts | 310° |
| 2026-04-21 19:23 | 53.76139 | -3.26886 | 27389 ft | 337 kts | 302° |
| 2026-04-21 19:23 | 53.77364 | -3.30283 | 27390 ft | 338 kts | 302° |
| 2026-04-21 19:24 | 53.78585 | -3.33673 | 27382 ft | 338 kts | 302° |
| 2026-04-21 19:24 | 53.79808 | -3.37072 | 27384 ft | 338 kts | 302° |
| 2026-04-21 19:24 | 53.81033 | -3.40480 | 27390 ft | 339 kts | 302° |
| 2026-04-21 19:24 | 53.82255 | -3.43885 | 27383 ft | 339 kts | 302° |
| 2026-04-21 19:25 | 53.83478 | -3.47293 | 27382 ft | 339 kts | 302° |
| 2026-04-21 19:25 | 53.84702 | -3.50705 | 27382 ft | 339 kts | 302° |
| 2026-04-21 19:25 | 53.85924 | -3.54114 | 27386 ft | 339 kts | 302° |
| 2026-04-21 19:25 | 53.87145 | -3.57533 | 27381 ft | 339 kts | 301° |
| 2026-04-21 19:26 | 53.88366 | -3.60952 | 27385 ft | 339 kts | 302° |
| 2026-04-21 19:26 | 53.89585 | -3.64364 | 27386 ft | 339 kts | 301° |
| 2026-04-21 19:26 | 53.90804 | -3.67790 | 27375 ft | 339 kts | 301° |
| 2026-04-21 19:26 | 53.92018 | -3.71212 | 27377 ft | 339 kts | 301° |
| 2026-04-21 19:27 | 53.93230 | -3.74640 | 27381 ft | 338 kts | 301° |
| 2026-04-21 19:27 | 53.94440 | -3.78064 | 27402 ft | 338 kts | 301° |
| 2026-04-21 19:27 | 53.95650 | -3.81488 | 27393 ft | 338 kts | 301° |
| 2026-04-21 19:27 | 53.96855 | -3.84927 | 27389 ft | 339 kts | 300° |
| 2026-04-21 19:28 | 53.98034 | -3.88387 | 27385 ft | 339 kts | 300° |
| 2026-04-21 19:28 | 53.99205 | -3.91865 | 27401 ft | 339 kts | 300° |
| 2026-04-21 19:28 | 54.00370 | -3.95342 | 27398 ft | 339 kts | 300° |
| 2026-04-21 19:28 | 54.01535 | -3.98820 | 27394 ft | 339 kts | 300° |
| 2026-04-21 19:29 | 54.02701 | -4.02300 | 27390 ft | 339 kts | 300° |
| 2026-04-21 19:29 | 54.03869 | -4.05785 | 27380 ft | 339 kts | 300° |
| 2026-04-21 19:29 | 54.05037 | -4.09268 | 27389 ft | 339 kts | 300° |
| 2026-04-21 19:29 | 54.06212 | -4.12735 | 27380 ft | 339 kts | 302° |
| 2026-04-21 19:30 | 54.07556 | -4.16030 | 27386 ft | 339 kts | 305° |
| 2026-04-21 19:30 | 54.08920 | -4.19306 | 27382 ft | 339 kts | 305° |
| 2026-04-21 19:30 | 54.10279 | -4.22578 | 27372 ft | 339 kts | 305° |
| 2026-04-21 19:30 | 54.11641 | -4.25863 | 27361 ft | 339 kts | 304° |
| 2026-04-21 19:31 | 54.12995 | -4.29142 | 27384 ft | 339 kts | 304° |
| 2026-04-21 19:31 | 54.14350 | -4.32423 | 27372 ft | 339 kts | 304° |
| 2026-04-21 19:31 | 54.15705 | -4.35711 | 27373 ft | 339 kts | 304° |
| 2026-04-21 19:31 | 54.17063 | -4.39001 | 27393 ft | 339 kts | 304° |
| 2026-04-21 19:32 | 54.18420 | -4.42289 | 27399 ft | 339 kts | 304° |
| 2026-04-21 19:32 | 54.19777 | -4.45576 | 27386 ft | 339 kts | 304° |
| 2026-04-21 19:32 | 54.21117 | -4.48833 | 27382 ft | 339 kts | 304° |
| 2026-04-21 19:32 | 54.22469 | -4.52138 | 27386 ft | 341 kts | 304° |
| 2026-04-21 19:33 | 54.23402 | -4.54423 | 27383 ft | 350 kts | 304° |
| 2026-04-21 19:33 | 54.25252 | -4.58953 | 26667 ft | 350 kts | 304° |
| 2026-04-21 19:33 | 54.26635 | -4.62340 | 25909 ft | 343 kts | 304° |
| 2026-04-21 19:33 | 54.27969 | -4.65609 | 25494 ft | 329 kts | 304° |
| 2026-04-21 19:34 | 54.28852 | -4.67778 | 25179 ft | 328 kts | 304° |
| 2026-04-21 19:34 | 54.29291 | -4.68861 | 25077 ft | 325 kts | 304° |
| 2026-04-21 19:34 | 54.30569 | -4.72023 | 24616 ft | 324 kts | 304° |
| 2026-04-21 19:35 | 54.31854 | -4.75196 | 24141 ft | 324 kts | 305° |
| 2026-04-21 19:35 | 54.34407 | -4.81500 | 23220 ft | 319 kts | 304° |
| 2026-04-21 19:35 | 54.35663 | -4.84604 | 22817 ft | 316 kts | 304° |
| 2026-04-21 19:36 | 54.36908 | -4.87683 | 22420 ft | 312 kts | 304° |
| 2026-04-21 19:36 | 54.38138 | -4.90725 | 22026 ft | 309 kts | 304° |
| 2026-04-21 19:36 | 54.39359 | -4.93751 | 21651 ft | 307 kts | 304° |
| 2026-04-21 19:36 | 54.40566 | -4.96757 | 21280 ft | 306 kts | 304° |
| 2026-04-21 19:37 | 54.41773 | -4.99769 | 20906 ft | 306 kts | 304° |
| 2026-04-21 19:37 | 54.42963 | -5.02823 | 20547 ft | 315 kts | 298° |
| 2026-04-21 19:37 | 54.43675 | -5.06459 | 20076 ft | 328 kts | 276° |
| 2026-04-21 19:37 | 54.43663 | -5.10382 | 19471 ft | 332 kts | 264° |
| 2026-04-21 19:38 | 54.43510 | -5.14381 | 18893 ft | 339 kts | 264° |
| 2026-04-21 19:38 | 54.43272 | -5.18424 | 18255 ft | 341 kts | 259° |
| 2026-04-21 19:38 | 54.43059 | -5.21088 | 17817 ft | 341 kts | 259° |
| 2026-04-21 19:38 | 54.42604 | -5.26475 | 16961 ft | 341 kts | 259° |
| 2026-04-21 19:39 | 54.42253 | -5.30479 | 16330 ft | 336 kts | 259° |
| 2026-04-21 19:39 | 54.41893 | -5.34423 | 15715 ft | 332 kts | 259° |
| 2026-04-21 19:39 | 54.41539 | -5.38311 | 15124 ft | 328 kts | 259° |
| 2026-04-21 19:39 | 54.41194 | -5.42126 | 14538 ft | 325 kts | 259° |
| 2026-04-21 19:40 | 54.40850 | -5.45938 | 13922 ft | 321 kts | 259° |
| 2026-04-21 19:40 | 54.40780 | -5.49760 | 13275 ft | 320 kts | 272° |
| 2026-04-21 19:40 | 54.40952 | -5.53559 | 12621 ft | 318 kts | 274° |
| 2026-04-21 19:40 | 54.41124 | -5.57324 | 11972 ft | 315 kts | 269° |
| 2026-04-21 19:41 | 54.40938 | -5.60952 | 11351 ft | 311 kts | 260° |
| 2026-04-21 19:41 | 54.40623 | -5.64600 | 10744 ft | 309 kts | 259° |
| 2026-04-21 19:41 | 54.40296 | -5.68225 | 10114 ft | 306 kts | 259° |
| 2026-04-21 19:41 | 54.39970 | -5.71826 | 9438 ft | 304 kts | 259° |
| 2026-04-21 19:42 | 54.39647 | -5.75392 | 8756 ft | 302 kts | 259° |
| 2026-04-21 19:42 | 54.39326 | -5.78937 | 8090 ft | 299 kts | 259° |
| 2026-04-21 19:42 | 54.39005 | -5.82451 | 7432 ft | 297 kts | 259° |
| 2026-04-21 19:42 | 54.38685 | -5.85934 | 6785 ft | 295 kts | 259° |
| 2026-04-21 19:43 | 54.38369 | -5.89393 | 6170 ft | 292 kts | 258° |
| 2026-04-21 19:43 | 54.38062 | -5.92824 | 5610 ft | 290 kts | 259° |
| 2026-04-21 19:43 | 54.37757 | -5.96265 | 5148 ft | 292 kts | 259° |
| 2026-04-21 19:43 | 54.37472 | -5.99694 | 4785 ft | 289 kts | 260° |
| 2026-04-21 19:44 | 54.37547 | -6.03108 | 4498 ft | 288 kts | 285° |
| 2026-04-21 19:44 | 54.38433 | -6.06162 | 4246 ft | 287 kts | 306° |
| 2026-04-21 19:44 | 54.39739 | -6.08689 | 3992 ft | 279 kts | 331° |
| 2026-04-21 19:44 | 54.41505 | -6.09756 | 3822 ft | 265 kts | 3° |
| 2026-04-21 19:45 | 54.43243 | -6.09216 | 3650 ft | 249 kts | 32° |
| 2026-04-21 19:45 | 54.44676 | -6.07651 | 3457 ft | 241 kts | 41° |
| 2026-04-21 19:45 | 54.46026 | -6.06042 | 3272 ft | 231 kts | 41° |
| 2026-04-21 19:45 | 54.47322 | -6.04503 | 3110 ft | 222 kts | 41° |
| 2026-04-21 19:46 | 54.48568 | -6.03026 | 3022 ft | 212 kts | 41° |
| 2026-04-21 19:46 | 54.49751 | -6.01623 | 2824 ft | 207 kts | 42° |
| 2026-04-21 19:46 | 54.50909 | -6.00250 | 2560 ft | 193 kts | 42° |
| 2026-04-21 19:46 | 54.51953 | -5.99017 | 2323 ft | 170 kts | 43° |
| 2026-04-21 19:47 | 54.52869 | -5.97930 | 2101 ft | 152 kts | 44° |
| 2026-04-21 19:47 | 54.53714 | -5.96921 | 1890 ft | 142 kts | 44° |
| 2026-04-21 19:47 | 54.54491 | -5.95996 | 1712 ft | 129 kts | 44° |
| 2026-04-21 19:47 | 54.55218 | -5.95127 | 1518 ft | 126 kts | 44° |
| 2026-04-21 19:48 | 54.55931 | -5.94276 | 1358 ft | 124 kts | 45° |
| 2026-04-21 19:48 | 54.56641 | -5.93427 | 1173 ft | 125 kts | 42° |
| 2026-04-21 19:48 | 54.57353 | -5.92577 | 987 ft | 124 kts | 40° |
| 2026-04-21 19:48 | 54.58058 | -5.91735 | 820 ft | 124 kts | 40° |
| 2026-04-21 19:49 | 54.58768 | -5.90888 | 650 ft | 124 kts | 41° |
| 2026-04-21 19:49 | 54.59479 | -5.90035 | 427 ft | 126 kts | 40° |
| 2026-04-21 19:49 | 54.60188 | -5.89183 | 269 ft | 124 kts | 39° |
| 2026-04-21 19:49 | 54.60897 | -5.88338 | 121 ft | 124 kts | 40° |
| 2026-04-21 19:50 | 54.61376 | -5.87776 | 32 ft | 123 kts | 40° |
| 2026-04-21 19:50 | 54.62108 | -5.86891 | 16 ft | 53 kts | 33° |
| 2026-04-21 19:50 | 54.62356 | -5.86596 | 22 ft | 33 kts | 34° |
| 2026-04-21 19:50 | 54.62460 | -5.86439 | 19 ft | 16 kts | 338° |
| 2026-04-21 19:51 | 54.62416 | -5.86536 | 22 ft | 16 kts | 207° |
| 2026-04-21 19:51 | 54.62319 | -5.86642 | 20 ft | 17 kts | 215° |
| 2026-04-21 19:51 | 54.62224 | -5.86757 | 20 ft | 19 kts | 215° |
| 2026-04-21 19:51 | 54.62052 | -5.86965 | 18 ft | 38 kts | 213° |
| 2026-04-21 19:52 | 54.61876 | -5.87168 | 19 ft | 14 kts | 211° |
| 2026-04-21 19:52 | 54.61839 | -5.87167 | 18 ft | 13 kts | 154° |
| 2026-04-21 19:52 | 54.61777 | -5.87030 | 21 ft | 14 kts | 123° |
| 2026-04-21 19:52 | 54.61737 | -5.86984 | 21 ft | 5 kts | 188° |
| 2026-04-21 19:53 | 54.61706 | -5.87014 | 21 ft | 6 kts | 215° |
| 2026-04-21 19:53 | 54.61656 | -5.87075 | 21 ft | 9 kts | 214° |
| 2026-04-21 19:53 | 54.61606 | -5.87135 | 21 ft | 7 kts | 214° |
| 2026-04-21 19:53 | 54.61562 | -5.87187 | 21 ft | 10 kts | 211° |
| 2026-04-21 19:54 | 54.61524 | -5.87163 | 21 ft | 4 kts | 156° |
| 2026-04-21 19:54 | 54.61504 | -5.87148 | 24 ft | 2 kts | 156° |
| 2026-04-21 19:54 | 54.61500 | -5.87145 | 23 ft | 0 kts | 156° |